Weather at Central Nebraska Regional Airport

Public forecast

Using degrees Fahrenheit for public forecast. Weather courtesy of forecast.io.

Current aviation weather report (METAR) for Central Nebraska Regional Airport

2024/06/22 06:53 (retrieved 34 minutes ago)

KGRI 220653Z AUTO 11008KT 10SM SCT120 21/20 A2989 RMK AO2 SLP109 T02110200

Aviation forecast (TAF) for Central Nebraska Regional Airport

2024/06/22 06:42 (retrieved 45 minutes ago)

TAF KGRI 220539Z 2206/2306 07009KT P6SM SCT080 BKN140 FM221200 21009KT P6SM SCT070 BKN250 FM221400 29011KT P6SM SCT060 BKN110 FM221500 32012KT P6SM BKN040 FM222000 35012KT P6SM FEW040 FEW080 FM230300 02005KT P6SM SKC